Terminal Aerodrome Forecast
Issued by NWS

Home | Current Version | Previous Version | Text Only | Print | Product List | Glossary On
Versions: 1 2 3 4 5 6 7 8 9 10 11 12 13 14 15 16 17 18 19
000
FTUS43 KDVN 211400 AAA
TAFBRL
TAF AMD
KBRL 211426Z 2114/2212 31010KT P6SM SKC
     FM211630 33012G20KT P6SM SCT025 BKN040
     FM220000 32008KT P6SM SKC
     FM220700 36004KT P6SM SKC=

USA.gov is the U.S. government's official web portal to all federal, state and local government web resources and services.